Aviation Digital Data Service (ADDS)

Output produced by METARs form (0302 UTC 18 August 2017)
found at http://www.aviationweather.gov/adds/metars/
 
HUEN 180200Z 32006KT 9999 FEW018 FEW020CB 19/18 Q1016.0
TAF HUEN 172300Z 1800/1906 01005KT 9999 FEW019 FEW021CB BKN100 
     TEMPO 1804/1806 VRB12KT 9000 FEW019 FEW920CB OVC090 
     BECMG 1807/1812 VRB15KT 8000 -TSRA BKN020 FEW022 OVC100 FM 181700 24010KT 9000 -TS SCT021 FEW023CB BKN110 
     BECMG 1820/1824 33005KT 9999 FEW030 FEW022CB SCT110 
     TEMPO 1904/1906 VRB10KT -TSRA SCT019 FEW021 OVC100
       
TAF HUSO 171000Z 1712/1812 02005KT 9999 FEW024 BKN110 FM 171600 05004KT FEW021 SCT120 
     BECMG 1721/1724 VRB06KT FEW018 SCT100 
     BECMG 1801 0+CMTI: SM,2
       
HUEN 180200Z 32006KT 9999 FEW018 FEW020CB 19/18 Q1016.0
TAF HUEN 172300Z 1800/1906 01005KT 9999 FEW019 FEW021CB BKN100 
     TEMPO 1804/1806 VRB12KT 9000 FEW019 FEW920CB OVC090 
     BECMG 1807/1812 VRB15KT 8000 -TSRA BKN020 FEW022 OVC100 FM 181700 24010KT 9000 -TS SCT021 FEW023CB BKN110 
     BECMG 1820/1824 33005KT 9999 FEW030 FEW022CB SCT110 
     TEMPO 1904/1906 VRB10KT -TSRA SCT019 FEW021 OVC100
       
TAF HUSO 171000Z 1712/1812 02005KT 9999 FEW024 BKN110 FM 171600 05004KT FEW021 SCT120 
     BECMG 1721/1724 VRB06KT FEW018 SCT100 
     BECMG 1801 0+CMTI: SM,2